Time;durP1;ratioP1;P1;durP2;ratioP2;P2;SDS_P1;SDS_P2;PMS_P1;PMS_P2;Temp;Humidity;BMP_temperature;BMP_pressure;BME280_temperature;BME280_humidity;BME280_pressure;Samples;Min_cycle;Max_cycle;Signal;HPM_P1;HPM_P2
2024/02/08 00:02:02;;;;;;;3.80;1.23;;;;;;;21.20;41.47;100294.28;5012648;27;96967;-75
2024/02/08 00:04:27;;;;;;;4.15;1.95;;;;;;;21.20;41.69;100288.97;5019404;27;97441;-76
2024/02/08 00:06:53;;;;;;;3.55;1.63;;;;;;;21.21;41.65;100295.13;5026861;27;97502;-76
2024/02/08 00:09:18;;;;;;;5.47;1.90;;;;;;;21.19;41.64;100289.88;5016660;27;119030;-76
2024/02/08 00:11:43;;;;;;;3.97;1.50;;;;;;;21.19;41.53;100284.56;5023618;27;97217;-75
2024/02/08 00:14:09;;;;;;;5.78;1.52;;;;;;;21.20;41.89;100288.13;5037991;27;96801;-75
2024/02/08 00:16:36;;;;;;;3.85;1.52;;;;;;;21.19;41.90;100291.69;5024298;27;96909;-76
2024/02/08 00:19:02;;;;;;;3.42;1.50;;;;;;;21.19;41.55;100289.88;5026938;28;98131;-76
2024/02/08 00:21:27;;;;;;;4.68;1.73;;;;;;;21.19;41.49;100296.97;5021581;28;96981;-75
2024/02/08 00:23:54;;;;;;;4.40;2.10;;;;;;;21.18;41.55;100287.31;5024686;27;96755;-76
2024/02/08 00:26:20;;;;;;;5.20;2.13;;;;;;;21.19;41.48;100297.84;5024664;28;96983;-75
2024/02/08 00:28:45;;;;;;;4.40;2.33;;;;;;;21.18;41.81;100295.28;5020701;27;99560;-75
2024/02/08 00:31:11;;;;;;;4.05;2.00;;;;;;;21.19;41.61;100304.94;5024066;28;127037;-76
2024/02/08 00:33:37;;;;;;;4.47;2.17;;;;;;;21.18;41.56;100296.13;5023653;27;115622;-75
2024/02/08 00:36:02;;;;;;;3.75;1.40;;;;;;;21.18;41.76;100298.78;5020605;27;97030;-76
2024/02/08 00:38:31;;;;;;;3.20;1.42;;;;;;;21.18;41.48;100298.78;5024233;27;97339;-76
2024/02/08 00:40:56;;;;;;;4.93;1.70;;;;;;;21.18;41.42;100303.22;5003895;28;98737;-75
2024/02/08 00:43:22;;;;;;;3.42;1.30;;;;;;;21.18;41.84;100308.53;5014933;27;97060;-76
2024/02/08 00:45:47;;;;;;;3.45;2.05;;;;;;;21.18;41.55;100308.53;5023406;27;97001;-76
2024/02/08 00:48:13;;;;;;;3.65;1.65;;;;;;;21.18;41.72;100305.88;5033809;27;97370;-76
2024/02/08 00:50:38;;;;;;;5.25;1.63;;;;;;;21.17;41.64;100293.53;5035918;27;97626;-75
2024/02/08 00:53:05;;;;;;;4.03;2.05;;;;;;;21.17;41.52;100291.72;5022466;27;115783;-75
2024/02/08 00:55:33;;;;;;;4.10;2.10;;;;;;;21.17;41.67;100298.84;5023784;28;98249;-76
2024/02/08 00:58:00;;;;;;;3.30;1.40;;;;;;;21.17;41.81;100302.34;5024564;27;97738;-75
2024/02/08 01:00:28;;;;;;;4.28;2.08;;;;;;;21.17;41.62;100299.69;5017011;27;97817;-76
2024/02/08 01:02:54;;;;;;;3.53;1.90;;;;;;;21.17;41.65;100299.69;5024751;27;98690;-76
2024/02/08 01:05:20;;;;;;;5.10;1.40;;;;;;;21.17;41.63;100293.53;5023014;27;97380;-75
2024/02/08 01:07:47;;;;;;;3.85;1.40;;;;;;;21.17;41.52;100309.44;5024291;27;100857;-76
2024/02/08 01:10:12;;;;;;;2.70;1.70;;;;;;;21.17;41.70;100301.50;5023795;27;97720;-74
2024/02/08 01:12:38;;;;;;;3.45;1.67;;;;;;;21.17;41.65;100301.50;5024281;28;96757;-76
2024/02/08 01:15:04;;;;;;;3.35;1.40;;;;;;;21.16;41.58;100297.97;5023600;27;97325;-76
2024/02/08 01:17:29;;;;;;;3.25;1.63;;;;;;;21.17;41.56;100301.50;5026502;27;98230;-76
2024/02/08 01:19:59;;;;;;;4.68;1.52;;;;;;;21.17;41.46;100296.19;5022552;27;96824;-75
2024/02/08 01:22:24;;;;;;;4.32;2.08;;;;;;;21.16;41.77;100297.09;5027353;28;96916;-76
2024/02/08 01:24:49;;;;;;;4.38;1.83;;;;;;;21.15;41.79;100298.91;5033096;27;96745;-76
2024/02/08 01:27:20;;;;;;;2.67;1.70;;;;;;;21.16;41.82;100297.97;5021140;27;116455;-76
2024/02/08 01:29:46;;;;;;;3.17;1.40;;;;;;;21.15;41.53;100298.91;5022965;27;97272;-76
2024/02/08 01:32:15;;;;;;;4.18;1.88;;;;;;;21.15;41.67;100290.94;5024751;27;96855;-76
2024/02/08 01:34:41;;;;;;;;;;;;;;;21.09;41.67;100278.78;5025899;27;97168;-76
2024/02/08 01:37:06;;;;;;;3.15;1.38;;;;;;;21.09;41.74;100273.50;5020958;27;97491;-76
2024/02/08 01:39:31;;;;;;;3.50;1.73;;;;;;;21.11;41.66;100268.97;5018945;28;98197;-76
2024/02/08 01:41:58;;;;;;;3.00;1.38;;;;;;;21.11;41.78;100276.94;5030502;27;110619;-75
2024/02/08 01:44:23;;;;;;;3.60;1.33;;;;;;;21.13;41.46;100291.94;5033296;27;97139;-75
2024/02/08 01:46:50;;;;;;;3.83;2.05;;;;;;;21.13;41.41;100286.63;5011074;27;113279;-75
2024/02/08 01:49:22;;;;;;;3.25;1.83;;;;;;;21.13;41.59;100278.69;5019869;27;97679;-75
2024/02/08 01:51:48;;;;;;;2.50;0.98;;;;;;;21.13;41.50;100273.38;5025986;27;97030;-76
2024/02/08 01:54:14;;;;;;;3.40;1.23;;;;;;;21.12;41.33;100259.22;5027967;27;96852;-76
2024/02/08 01:56:44;;;;;;;3.03;1.40;;;;;;;21.12;41.70;100248.63;5016689;27;100062;-75
2024/02/08 01:59:13;;;;;;;3.35;1.80;;;;;;;21.13;41.59;100254.81;5013369;28;99802;-76
2024/02/08 02:01:46;;;;;;;3.67;1.77;;;;;;;21.13;41.51;100260.97;5009579;28;96777;-76
2024/02/08 02:04:15;;;;;;;4.60;1.20;;;;;;;21.11;41.78;100268.97;5014654;28;97374;-75
2024/02/08 02:06:44;;;;;;;3.72;1.55;;;;;;;21.11;41.79;100271.63;5019892;27;99182;-76
2024/02/08 02:09:11;;;;;;;4.07;2.05;;;;;;;21.12;41.33;100275.16;5029265;27;97018;-76
2024/02/08 02:11:41;;;;;;;2.80;1.75;;;;;;;21.12;41.50;100275.16;5018056;27;97320;-76
2024/02/08 02:14:09;;;;;;;2.33;1.20;;;;;;;21.11;41.74;100271.63;5040027;27;97560;-75
2024/02/08 02:16:35;;;;;;;3.63;2.08;;;;;;;21.11;41.55;100279.59;5024101;27;99081;-76
2024/02/08 02:19:00;;;;;;;3.95;1.80;;;;;;;21.10;41.61;100285.84;5037678;27;97689;-76
2024/02/08 02:21:27;;;;;;;3.88;1.67;;;;;;;21.10;41.34;100288.50;5020555;27;96626;-75
2024/02/08 02:23:53;;;;;;;3.75;1.38;;;;;;;21.11;41.64;100292.84;5028628;27;96808;-75
2024/02/08 02:26:19;;;;;;;3.70;1.73;;;;;;;21.11;41.51;100279.59;5010742;27;98899;-75
2024/02/08 02:28:46;;;;;;;3.92;1.83;;;;;;;21.11;41.32;100268.13;5028784;27;96850;-75
2024/02/08 02:31:13;;;;;;;3.50;2.10;;;;;;;21.10;41.49;100251.38;5018738;27;97182;-76
2024/02/08 02:33:43;;;;;;;2.85;1.75;;;;;;;21.11;41.68;100254.88;5022863;27;97659;-76
2024/02/08 02:36:08;;;;;;;3.72;1.88;;;;;;;21.10;41.37;100256.66;5024886;28;98592;-75
2024/02/08 02:38:37;;;;;;;3.42;2.00;;;;;;;21.11;41.66;100253.06;5029684;27;97332;-76
2024/02/08 02:41:06;;;;;;;2.88;1.65;;;;;;;21.10;41.68;100248.72;5023479;27;96847;-76
2024/02/08 02:43:34;;;;;;;3.33;1.20;;;;;;;21.10;41.53;100248.72;5017096;28;98613;-75
2024/02/08 02:45:59;;;;;;;2.80;1.58;;;;;;;21.11;41.39;100242.47;5030015;28;97383;-76
2024/02/08 02:48:25;;;;;;;3.78;1.88;;;;;;;21.10;41.63;100242.53;5020233;27;98049;-76
2024/02/08 02:50:51;;;;;;;3.80;1.55;;;;;;;21.09;41.58;100236.38;5026986;27;96841;-75
2024/02/08 02:53:17;;;;;;;3.30;1.95;;;;;;;21.10;41.34;100240.75;5029878;27;96899;-75
2024/02/08 02:55:43;;;;;;;3.22;1.90;;;;;;;21.11;41.46;100231.00;5026536;27;97545;-75
2024/02/08 02:58:09;;;;;;;3.15;1.38;;;;;;;21.09;41.34;100228.41;5022433;27;97357;-75
2024/02/08 03:00:34;;;;;;;2.97;1.70;;;;;;;21.10;41.28;100235.47;5021827;28;96869;-75
2024/02/08 03:03:07;;;;;;;2.83;1.88;;;;;;;21.10;41.26;100250.47;5028828;27;96752;-78
2024/02/08 03:05:45;;;;;;;2.72;1.00;;;;;;;21.09;41.28;100243.47;5022276;28;100050;-78
2024/02/08 03:08:11;;;;;;;3.78;1.30;;;;;;;21.09;41.48;100230.22;5030003;27;97231;-77
2024/02/08 03:10:39;;;;;;;3.83;1.42;;;;;;;21.07;41.33;100222.31;5033684;27;96779;-77
2024/02/08 03:13:07;;;;;;;3.00;1.20;;;;;;;21.08;41.43;100215.22;5028530;27;96835;-78
2024/02/08 03:15:32;;;;;;;3.53;1.30;;;;;;;21.07;41.49;100214.34;5025836;27;96859;-75
2024/02/08 03:17:58;;;;;;;4.60;1.27;;;;;;;21.07;41.29;100208.19;5029125;27;106865;-75
2024/02/08 03:20:24;;;;;;;3.22;1.88;;;;;;;21.07;41.31;100218.81;5026834;27;110788;-76
2024/02/08 03:22:50;;;;;;;3.70;1.83;;;;;;;21.06;41.54;100217.94;5021289;27;97146;-74
2024/02/08 03:25:16;;;;;;;3.38;1.85;;;;;;;21.07;41.56;100222.31;5027249;27;97957;-76
2024/02/08 03:27:44;;;;;;;3.75;1.60;;;;;;;21.07;41.51;100224.13;5028594;27;98446;-75
2024/02/08 03:30:19;;;;;;;2.95;1.80;;;;;;;21.07;41.14;100216.16;5027515;27;97374;-76
2024/02/08 03:32:52;;;;;;;2.63;1.35;;;;;;;21.07;41.53;100214.34;5024274;27;96770;-76
2024/02/08 03:35:27;;;;;;;4.05;1.77;;;;;;;21.05;41.48;100210.91;5025245;27;97099;-75
2024/02/08 03:38:00;;;;;;;2.97;1.73;;;;;;;21.06;41.33;100211.78;5025165;27;98946;-75
2024/02/08 03:40:31;;;;;;;2.50;1.05;;;;;;;21.05;41.38;100208.25;5022411;27;96674;-76
2024/02/08 03:42:56;;;;;;;3.42;1.80;;;;;;;21.06;41.42;100201.16;5021382;27;97395;-76
2024/02/08 03:45:27;;;;;;;2.63;1.60;;;;;;;21.05;41.47;100202.97;5020805;27;97647;-76
2024/02/08 03:48:01;;;;;;;3.95;1.33;;;;;;;21.05;41.42;100200.31;5028081;27;97721;-75
2024/02/08 03:50:33;;;;;;;2.60;1.17;;;;;;;21.05;41.52;100194.13;5027411;27;97388;-76
2024/02/08 03:53:02;;;;;;;2.35;1.27;;;;;;;21.04;41.42;100200.38;5028223;27;97645;-76
2024/02/08 03:55:28;;;;;;;3.53;1.83;;;;;;;21.05;41.34;100207.38;5026979;27;97121;-75
2024/02/08 03:57:56;;;;;;;2.63;1.40;;;;;;;21.05;41.60;100202.06;5035679;27;97178;-75
2024/02/08 04:00:28;;;;;;;4.47;1.90;;;;;;;21.04;41.50;100206.53;5023817;28;97679;-76
2024/02/08 04:03:04;;;;;;;2.97;1.75;;;;;;;21.03;41.32;100201.28;5020311;27;96812;-75
2024/02/08 04:09:05;;;;;;;3.08;1.10;;;;;;;21.03;41.39;100190.69;5009683;27;98531;-76
2024/02/08 04:55:21;;;;;;;2.90;1.17;;;;;;;20.94;41.61;100146.84;5019254;27;96697;-76
2024/02/08 04:57:48;;;;;;;2.53;1.65;;;;;;;20.94;41.39;100144.19;5013269;27;97011;-75
2024/02/08 05:00:13;;;;;;;3.00;1.50;;;;;;;20.95;41.16;100135.34;5012715;27;98649;-76
2024/02/08 05:02:40;;;;;;;2.58;1.00;;;;;;;20.96;41.15;100134.38;5012477;27;97450;-76
2024/02/08 05:05:07;;;;;;;2.30;1.13;;;;;;;20.97;41.43;100140.56;5014978;28;96748;-76
2024/02/08 05:07:32;;;;;;;2.58;1.00;;;;;;;20.96;41.41;100139.69;5023740;27;96936;-75
2024/02/08 05:09:58;;;;;;;2.85;1.52;;;;;;;20.97;41.32;100133.47;5031601;27;97543;-76
2024/02/08 05:12:24;;;;;;;3.17;1.50;;;;;;;20.97;41.13;100141.44;5025515;27;100084;-76
2024/02/08 05:14:49;;;;;;;2.53;1.63;;;;;;;20.97;41.26;100135.28;5022015;27;96867;-75
2024/02/08 05:17:15;;;;;;;2.58;1.27;;;;;;;20.98;41.00;100136.97;5027550;27;103603;-76
2024/02/08 05:19:43;;;;;;;3.42;1.85;;;;;;;20.98;41.18;100143.16;5015722;28;112790;-75
2024/02/08 05:22:11;;;;;;;2.70;1.20;;;;;;;20.98;41.19;100139.63;5010091;28;97236;-75
2024/02/08 05:24:37;;;;;;;4.13;1.98;;;;;;;20.97;41.19;100128.16;5009768;28;97370;-76
2024/02/08 05:27:03;;;;;;;4.13;1.83;;;;;;;20.99;41.04;100141.38;5024570;27;99645;-75
2024/02/08 05:29:28;;;;;;;3.08;1.70;;;;;;;20.98;41.30;100145.81;5018740;27;97336;-76
2024/02/08 05:31:54;;;;;;;2.67;1.75;;;;;;;20.96;41.32;100150.28;5008922;27;100269;-76
2024/02/08 05:34:21;;;;;;;2.63;1.23;;;;;;;20.98;41.06;100150.22;5010479;28;96760;-76
2024/02/08 05:36:48;;;;;;;2.55;1.60;;;;;;;20.97;41.48;100151.19;5005210;28;97286;-75
2024/02/08 05:39:24;;;;;;;2.72;1.60;;;;;;;20.97;41.42;100157.34;5019518;27;97719;-76
2024/02/08 05:41:54;;;;;;;2.30;0.95;;;;;;;20.96;41.25;100154.75;5022265;27;97715;-74
2024/02/08 05:44:20;;;;;;;2.15;1.23;;;;;;;20.96;41.26;100147.63;5027874;27;97273;-76
2024/02/08 05:46:49;;;;;;;5.03;1.38;;;;;;;20.97;41.05;100148.53;5023370;27;97034;-76
2024/02/08 05:49:15;;;;;;;2.97;1.60;;;;;;;20.96;40.99;100150.28;5026383;27;98177;-76
2024/02/08 05:51:46;;;;;;;2.67;1.60;;;;;;;20.95;41.33;100153.88;5030877;27;97203;-76
2024/02/08 05:54:31;;;;;;;2.47;1.67;;;;;;;20.96;41.28;100150.28;5018803;27;97421;-75
2024/02/08 05:57:03;;;;;;;2.33;1.52;;;;;;;20.95;41.39;100156.53;5022424;28;96841;-76
2024/02/08 05:59:31;;;;;;;2.53;0.93;;;;;;;20.95;41.38;100153.88;5027182;27;100290;-76
2024/02/08 06:01:58;;;;;;;3.47;1.10;;;;;;;20.95;41.16;100145.09;5027555;28;97731;-75
2024/02/08 06:04:34;;;;;;;2.70;1.85;;;;;;;20.96;41.12;100125.56;5018483;27;96969;-77
2024/02/08 06:07:05;;;;;;;2.30;1.60;;;;;;;20.95;41.33;100124.72;5017293;28;96793;-76
2024/02/08 06:12:20;;;;;;;2.45;1.42;;;;;;;20.94;41.15;100119.47;5028160;27;96857;-76
2024/02/08 06:14:46;;;;;;;2.83;1.10;;;;;;;20.94;40.88;100107.09;5011582;27;96746;-75
2024/02/08 06:17:12;;;;;;;2.85;2.00;;;;;;;20.94;41.28;100111.53;5028426;27;97066;-75
2024/02/08 06:19:50;;;;;;;2.53;0.95;;;;;;;20.94;40.96;100116.84;5036135;27;102070;-75
2024/02/08 06:22:20;;;;;;;2.30;1.10;;;;;;;20.94;40.94;100117.69;5021868;27;97862;-76
2024/02/08 06:24:54;;;;;;;2.38;1.50;;;;;;;20.94;41.16;100122.13;5018539;27;96748;-75
2024/02/08 06:27:26;;;;;;;2.50;1.60;;;;;;;20.92;40.94;100124.84;5025521;28;96945;-75
2024/02/08 06:29:52;;;;;;;2.60;1.15;;;;;;;20.92;41.14;100119.53;5024576;27;97640;-76
2024/02/08 06:32:33;;;;;;;2.75;1.13;;;;;;;20.92;40.92;100117.75;5004662;28;100557;-75
2024/02/08 06:35:19;;;;;;;2.80;1.60;;;;;;;20.92;41.28;100108.94;5023609;27;96972;-76
2024/02/08 06:37:56;;;;;;;2.33;1.42;;;;;;;20.91;41.28;100108.09;5030442;28;96884;-76
2024/02/08 06:40:24;;;;;;;3.10;1.67;;;;;;;20.91;40.92;100097.50;5026719;27;100330;-76
2024/02/08 06:45:40;;;;;;;3.03;1.60;;;;;;;20.91;41.16;100097.50;5028125;27;97233;-76
2024/02/08 06:48:35;;;;;;;3.40;1.27;;;;;;;20.91;40.88;100102.78;5026824;27;96826;-76
2024/02/08 07:37:38;;;;;;;2.22;1.17;;;;;;;20.83;40.83;100032.47;5026779;27;97530;-76
2024/02/08 07:42:52;;;;;;;2.50;1.10;;;;;;;20.83;41.01;100040.41;5022742;27;96852;-76
2024/02/08 07:45:21;;;;;;;;;;;;;;;20.78;40.85;100050.34;5011781;27;98327;-75
2024/02/08 07:47:57;;;;;;;3.50;1.85;;;;;;;20.79;41.18;100052.09;5017592;27;97384;-76
2024/02/08 07:50:24;;;;;;;3.08;1.20;;;;;;;20.81;41.07;100045.78;5015941;27;96845;-75
2024/02/08 07:52:58;;;;;;;3.33;1.10;;;;;;;20.82;41.19;100031.63;5035392;27;97216;-76
2024/02/08 07:58:10;;;;;;;3.92;1.98;;;;;;;20.83;41.09;100012.13;5018834;27;97392;-76
2024/02/08 08:03:15;;;;;;;3.90;1.40;;;;;;;20.86;41.13;100019.09;5017889;27;97812;-77
2024/02/08 08:05:43;;;;;;;4.88;1.75;;;;;;;20.86;40.98;99996.09;5025382;27;97456;-76
2024/02/08 08:08:24;;;;;;;3.47;1.77;;;;;;;20.85;40.95;99994.34;5031926;27;97175;-76
2024/02/08 08:11:03;;;;;;;3.95;1.80;;;;;;;20.85;40.72;99990.84;5018332;27;96913;-76
2024/02/08 08:19:09;;;;;;;2.95;1.42;;;;;;;20.84;41.06;99986.50;5008692;27;100618;-76
2024/02/08 08:24:27;;;;;;;3.13;1.17;;;;;;;20.84;41.08;99984.69;5022130;28;96789;-77
2024/02/08 08:27:06;;;;;;;2.35;1.73;;;;;;;20.85;41.21;99981.09;5020071;27;98111;-76
2024/02/08 08:29:43;;;;;;;2.88;1.20;;;;;;;20.84;41.07;99974.09;5016551;27;98046;-75
2024/02/08 08:40:38;;;;;;;3.47;1.48;;;;;;;20.83;40.80;99952.97;5027819;28;99077;-76
2024/02/08 08:43:10;;;;;;;4.05;1.33;;;;;;;20.83;40.89;99945.00;5021038;28;97175;-76
2024/02/08 08:45:40;;;;;;;4.38;1.60;;;;;;;20.84;40.78;99944.94;5021740;28;96748;-76
2024/02/08 08:48:09;;;;;;;2.92;1.80;;;;;;;20.84;40.68;99944.94;5019103;27;97910;-76
2024/02/08 08:50:35;;;;;;;3.33;2.05;;;;;;;20.85;41.08;99937.84;5022326;28;97718;-76
2024/02/08 08:53:19;;;;;;;3.10;1.40;;;;;;;20.85;40.99;99930.75;5018296;27;96805;-76
2024/02/08 08:55:49;;;;;;;2.97;1.50;;;;;;;20.85;40.99;99924.59;5016380;28;96732;-76
2024/02/08 08:58:15;;;;;;;2.97;1.33;;;;;;;20.85;41.08;99921.94;5019250;28;97015;-75
2024/02/08 09:00:46;;;;;;;3.60;1.92;;;;;;;20.85;40.83;99922.78;5028039;27;97904;-76
2024/02/08 09:03:27;;;;;;;2.25;1.65;;;;;;;20.87;40.60;99925.38;5021446;27;97478;-76
2024/02/08 09:05:59;;;;;;;3.08;1.90;;;;;;;20.86;40.59;99931.63;5026701;27;96799;-76
2024/02/08 09:08:43;;;;;;;4.80;1.80;;;;;;;20.85;40.58;99929.91;5021771;27;100081;-75
2024/02/08 09:11:12;;;;;;;3.50;1.90;;;;;;;20.84;41.02;99925.53;5026044;27;98371;-76
2024/02/08 09:13:42;;;;;;;3.72;1.40;;;;;;;20.84;40.69;99923.75;5024574;28;96926;-76
2024/02/08 09:21:32;;;;;;;4.68;1.55;;;;;;;20.84;40.68;99926.41;5027484;27;98989;-75
2024/02/08 09:24:03;;;;;;;3.33;1.33;;;;;;;20.84;40.80;99925.53;5013237;27;96678;-76
2024/02/08 09:26:48;;;;;;;3.35;1.33;;;;;;;20.84;40.72;99910.50;5024418;28;97469;-76
2024/02/08 09:29:14;;;;;;;4.43;1.80;;;;;;;20.83;40.99;99906.09;5029745;27;100379;-76
2024/02/08 09:31:39;;;;;;;3.75;1.50;;;;;;;20.84;40.85;99899.88;5029545;27;100752;-76
2024/02/08 09:34:14;;;;;;;4.20;1.73;;;;;;;20.84;40.54;99897.25;5012934;28;96731;-76
2024/02/08 09:36:46;;;;;;;3.22;1.63;;;;;;;20.84;40.88;99885.78;5015568;27;96914;-76
2024/02/08 09:39:15;;;;;;;2.92;1.23;;;;;;;20.85;40.59;99887.50;5021822;27;97773;-77
2024/02/08 09:41:47;;;;;;;3.28;1.38;;;;;;;20.84;41.00;99881.34;5025692;27;96825;-76
2024/02/08 09:44:14;;;;;;;3.00;0.98;;;;;;;20.85;41.01;99863.63;5011857;28;96768;-76
2024/02/08 09:49:16;;;;;;;3.20;1.10;;;;;;;20.84;40.71;99857.47;5039858;27;96699;-76
2024/02/08 09:51:52;;;;;;;5.00;1.80;;;;;;;20.83;40.79;99855.75;5012518;27;98030;-76
2024/02/08 09:54:29;;;;;;;2.38;1.40;;;;;;;20.84;40.72;99840.72;5013404;28;96734;-76
2024/02/08 09:57:31;;;;;;;2.83;1.10;;;;;;;20.84;40.68;99849.53;5011571;27;96919;-76
2024/02/08 10:00:07;;;;;;;3.42;1.50;;;;;;;20.83;40.61;99845.16;5011946;27;96697;-76
2024/02/08 10:02:53;;;;;;;4.35;1.80;;;;;;;20.82;40.73;99831.97;5012571;27;96813;-76
2024/02/08 10:05:19;;;;;;;3.28;1.75;;;;;;;20.82;40.54;99831.97;5011256;27;97095;-76
2024/02/08 10:08:09;;;;;;;2.70;1.10;;;;;;;20.82;40.86;99822.25;5018438;27;97991;-76
2024/02/08 10:10:56;;;;;;;3.83;1.92;;;;;;;20.81;40.76;99817.88;5029524;27;97937;-76
2024/02/08 10:13:30;;;;;;;4.20;1.88;;;;;;;20.82;40.79;99808.13;5023704;28;97209;-75
2024/02/08 10:15:58;;;;;;;3.25;1.25;;;;;;;20.82;40.56;99798.41;5025524;27;96761;-76
2024/02/08 10:18:33;;;;;;;3.22;1.58;;;;;;;20.82;40.64;99786.91;5012112;27;96848;-75
2024/02/08 10:21:12;;;;;;;3.65;1.20;;;;;;;20.82;40.93;99782.50;5027282;27;96821;-76
2024/02/08 10:23:48;;;;;;;3.88;1.73;;;;;;;20.81;40.91;99783.41;5025213;28;100422;-76
2024/02/08 10:26:19;;;;;;;4.38;1.65;;;;;;;20.82;40.79;99786.91;5028882;27;98180;-76
2024/02/08 10:28:53;;;;;;;4.13;1.73;;;;;;;20.81;40.71;99780.75;5027206;27;96833;-77
2024/02/08 10:31:24;;;;;;;2.55;1.88;;;;;;;20.82;40.70;99787.78;5012037;28;97617;-76
2024/02/08 10:34:08;;;;;;;3.15;1.60;;;;;;;20.82;40.44;99778.97;5013336;27;97410;-76
2024/02/08 10:36:39;;;;;;;2.88;1.10;;;;;;;20.82;40.47;99773.66;5011989;27;97538;-76
2024/02/08 10:39:23;;;;;;;4.28;1.38;;;;;;;20.82;40.77;99753.34;5013099;27;96981;-76
2024/02/08 10:44:24;;;;;;;3.10;1.17;;;;;;;20.82;40.42;99723.31;5020516;27;97234;-76
2024/02/08 10:46:55;;;;;;;3.75;1.42;;;;;;;20.84;40.42;99716.16;5011996;27;96934;-76
2024/02/08 10:49:22;;;;;;;3.47;1.88;;;;;;;20.82;40.59;99712.72;5013146;27;96672;-76
2024/02/08 10:51:49;;;;;;;3.08;1.40;;;;;;;20.83;40.56;99723.25;5010851;27;97563;-76
2024/02/08 10:54:16;;;;;;;3.85;1.27;;;;;;;20.82;40.66;99736.56;5024238;27;97333;-77
2024/02/08 10:56:48;;;;;;;2.90;1.15;;;;;;;20.82;40.27;99729.50;5047077;27;96849;-76
2024/02/08 11:02:08;;;;;;;3.55;1.08;;;;;;;20.81;40.51;99753.41;5011206;28;100868;-76
2024/02/08 11:04:40;;;;;;;3.15;1.30;;;;;;;20.81;40.83;99741.00;5012376;27;97938;-76
2024/02/08 11:07:17;;;;;;;2.78;1.73;;;;;;;20.81;40.50;99717.16;5013069;28;97114;-76
2024/02/08 11:09:47;;;;;;;3.13;1.63;;;;;;;20.81;40.29;99711.84;5028534;27;96652;-76
2024/02/08 11:12:33;;;;;;;2.97;1.77;;;;;;;20.81;40.74;99705.72;5030846;27;97435;-75
2024/02/08 11:15:15;;;;;;;4.05;1.58;;;;;;;20.80;40.47;99712.81;5024943;27;98006;-76
2024/02/08 11:17:52;;;;;;;2.72;1.38;;;;;;;20.81;40.30;99687.16;5029104;28;96849;-75
2024/02/08 11:20:33;;;;;;;2.85;1.10;;;;;;;20.79;40.38;99684.56;5010907;28;97677;-76
2024/02/08 11:23:18;;;;;;;3.38;2.05;;;;;;;20.79;40.49;99703.13;5024451;27;97214;-75
2024/02/08 11:25:47;;;;;;;4.72;1.92;;;;;;;20.79;40.45;99704.94;5023507;27;96959;-76
2024/02/08 11:28:15;;;;;;;3.35;1.35;;;;;;;20.78;40.61;99701.41;5033090;27;96916;-76
2024/02/08 11:30:41;;;;;;;2.72;1.23;;;;;;;20.80;40.68;99696.03;5026350;27;97539;-76
2024/02/08 11:33:12;;;;;;;3.83;1.73;;;;;;;20.80;40.46;99699.56;5033005;27;100115;-75
2024/02/08 11:35:54;;;;;;;3.25;1.40;;;;;;;20.80;40.24;99690.72;5017891;27;97614;-76
2024/02/08 11:38:28;;;;;;;2.33;1.27;;;;;;;20.79;40.54;99692.53;5004975;27;97271;-76
2024/02/08 11:40:57;;;;;;;3.55;1.40;;;;;;;20.81;40.56;99679.22;5020221;27;97269;-75
2024/02/08 11:43:24;;;;;;;2.97;1.90;;;;;;;20.80;40.38;99681.00;5021657;27;97657;-76
2024/02/08 11:45:54;;;;;;;3.78;1.80;;;;;;;20.80;40.53;99683.66;5017357;27;98778;-75
2024/02/08 11:48:27;;;;;;;2.45;1.33;;;;;;;20.81;40.54;99685.34;5018877;27;96703;-76
2024/02/08 11:51:09;;;;;;;4.93;1.80;;;;;;;20.80;40.35;99691.59;5029443;27;99022;-76
2024/02/08 11:53:35;;;;;;;4.60;1.33;;;;;;;20.79;40.52;99681.06;5020681;27;96877;-76
2024/02/08 11:56:09;;;;;;;4.05;1.95;;;;;;;20.80;40.42;99666.88;5038861;27;99230;-75
2024/02/08 11:58:46;;;;;;;4.65;1.20;;;;;;;20.79;40.70;99662.53;5020312;27;96966;-76
2024/02/08 12:01:14;;;;;;;3.90;1.92;;;;;;;20.80;40.77;99648.31;5018647;27;97328;-76
2024/02/08 12:03:43;;;;;;;2.83;1.10;;;;;;;20.81;40.22;99658.00;5023899;27;98075;-76
2024/02/08 12:06:17;;;;;;;4.95;1.40;;;;;;;20.80;40.41;99656.28;5022076;27;97357;-76
2024/02/08 12:09:03;;;;;;;2.90;1.90;;;;;;;20.78;40.22;99613.94;5004011;28;96909;-77
2024/02/08 12:11:30;;;;;;;5.03;2.22;;;;;;;20.79;40.65;99622.78;5020106;27;98127;-76
2024/02/08 12:14:04;;;;;;;3.83;1.70;;;;;;;20.79;40.62;99614.81;5024180;27;96817;-76
2024/02/08 12:16:30;;;;;;;2.92;1.38;;;;;;;20.80;40.50;99603.28;5021738;28;98864;-76
2024/02/08 12:19:06;;;;;;;3.95;1.70;;;;;;;20.80;40.57;99592.69;5018702;27;96741;-76
2024/02/08 12:21:33;;;;;;;3.00;1.58;;;;;;;20.80;40.44;99584.72;5017280;27;99178;-77
2024/02/08 12:23:59;;;;;;;3.33;1.35;;;;;;;20.80;40.25;99588.25;5000401;27;98415;-76
2024/02/08 12:26:31;;;;;;;3.90;1.50;;;;;;;20.80;40.53;99588.25;5027604;27;99636;-76
2024/02/08 12:29:01;;;;;;;2.63;1.90;;;;;;;20.80;40.44;99580.31;5025843;27;97059;-77
2024/02/08 12:31:29;;;;;;;3.38;1.92;;;;;;;20.81;40.38;99575.84;5019573;27;97216;-76
2024/02/08 12:33:58;;;;;;;5.00;2.00;;;;;;;20.81;40.53;99581.16;5020984;27;97420;-76
2024/02/08 12:36:30;;;;;;;3.10;1.15;;;;;;;20.80;40.35;99568.81;5025747;27;96813;-76
2024/02/08 12:38:58;;;;;;;2.90;1.77;;;;;;;20.79;40.27;99575.94;5009725;28;96969;-76
2024/02/08 12:41:24;;;;;;;5.53;1.80;;;;;;;20.80;40.23;99571.47;5011713;27;96954;-75
2024/02/08 12:43:53;;;;;;;2.88;1.48;;;;;;;20.80;40.58;99574.13;5021679;28;97122;-76
2024/02/08 12:46:22;;;;;;;3.28;1.30;;;;;;;20.79;40.32;99565.31;5019397;27;97998;-76
2024/02/08 12:48:47;;;;;;;;;;;;;;;20.72;40.32;99553.31;5031984;27;97575;-76
2024/02/08 12:51:19;;;;;;;4.68;1.80;;;;;;;20.73;40.58;99560.34;5031880;27;96801;-76
2024/02/08 12:53:55;;;;;;;3.30;1.70;;;;;;;20.75;40.54;99542.56;5010357;27;97505;-75
2024/02/08 12:56:22;;;;;;;4.50;1.40;;;;;;;20.77;40.52;99534.56;5010378;27;97484;-76
2024/02/08 12:58:59;;;;;;;4.72;1.92;;;;;;;20.76;40.45;99540.78;5015229;28;97606;-76
2024/02/08 13:01:25;;;;;;;5.38;1.77;;;;;;;20.76;40.19;99527.53;5023936;28;96904;-76
2024/02/08 13:03:54;;;;;;;3.38;1.95;;;;;;;20.77;40.29;99516.00;5019275;28;97486;-76
2024/02/08 13:06:19;;;;;;;4.13;1.83;;;;;;;20.77;40.45;99518.66;5023365;27;98225;-76
2024/02/08 13:08:46;;;;;;;3.60;1.88;;;;;;;20.77;40.57;99516.00;5024670;27;96774;-76
2024/02/08 13:11:19;;;;;;;4.40;1.45;;;;;;;20.76;40.46;99525.72;5020981;27;96894;-76
2024/02/08 13:13:45;;;;;;;3.30;1.42;;;;;;;20.77;40.65;99534.56;5020889;28;98119;-76
2024/02/08 13:16:11;;;;;;;4.05;2.20;;;;;;;20.76;40.16;99483.34;5017362;27;99703;-76
2024/02/08 13:18:42;;;;;;;3.30;1.85;;;;;;;20.78;40.50;99488.56;5019785;27;97531;-76
2024/02/08 13:21:08;;;;;;;4.40;1.30;;;;;;;20.76;40.29;99480.69;5020631;28;96987;-76
2024/02/08 13:23:34;;;;;;;3.67;1.98;;;;;;;20.77;40.28;99484.22;5021121;28;97200;-76
2024/02/08 13:26:00;;;;;;;4.68;1.77;;;;;;;20.77;40.52;99473.63;5022759;27;99328;-76
2024/02/08 13:28:27;;;;;;;3.00;1.30;;;;;;;20.77;40.23;99465.66;5017050;27;96679;-76
2024/02/08 13:30:58;;;;;;;4.93;1.83;;;;;;;20.76;40.46;99459.47;5021903;28;98912;-76
2024/02/08 13:33:24;;;;;;;3.53;1.85;;;;;;;20.76;40.42;99448.03;5012707;27;97399;-76
2024/02/08 13:35:52;;;;;;;3.22;1.63;;;;;;;20.76;40.47;99445.38;5019715;27;115407;-75
2024/02/08 13:38:22;;;;;;;4.30;1.70;;;;;;;20.76;40.26;99440.09;5024552;27;96756;-75
2024/02/08 13:40:52;;;;;;;3.72;2.05;;;;;;;20.76;40.29;99434.78;5020459;28;97485;-75
2024/02/08 13:43:19;;;;;;;5.03;1.90;;;;;;;20.76;40.23;99416.25;5019361;28;97536;-76
2024/02/08 13:45:45;;;;;;;3.53;1.50;;;;;;;20.75;40.25;99426.00;5023443;27;97317;-75
2024/02/08 13:48:14;;;;;;;4.43;1.20;;;;;;;20.76;40.20;99422.38;5014615;27;96821;-75
2024/02/08 13:50:43;;;;;;;4.18;1.73;;;;;;;20.75;40.19;99423.34;5023178;27;97652;-76
2024/02/08 13:53:14;;;;;;;5.10;1.50;;;;;;;20.76;40.33;99425.03;5023838;27;97517;-76
2024/02/08 13:55:45;;;;;;;5.55;1.70;;;;;;;20.75;40.53;99409.22;5009780;28;99039;-75
2024/02/08 13:58:12;;;;;;;3.35;1.95;;;;;;;20.75;40.46;99399.50;5020120;27;96760;-76
2024/02/08 14:00:37;;;;;;;5.13;2.22;;;;;;;20.75;40.19;99391.53;5023211;27;96834;-75